Lodiburg, Kentucky
Current Conditions -  °F | °C
As of 1:23 PM on Thursday 23 Oct 2014 (Local Time) from KFTK Reporting Station
Clear Clear  
Wind Chill: 59°   Ceiling: Unl
Heat Index: 59°   Visibility: 10mi
Dew Point: 41°   Wind: 3mph
Humidity: 51%   Direction: 110°ESE
Pressure: 30.16"   Gusts: NA
Location:  37.879°N, 86.3348°W
Report Text: KFTK 231823Z AUTO 11003KT 10SM CLR 15/05 A3016 RMK AO2
Loading
Personal Weather Stations






























Interactive Weather Map
Tropical Storm Tracking
New forecast layout! Learn more

10-Day Weather Forecast

Advertisements
Track Severe Weather on mobile